sensor_id;sensor_type;location;lat;lon;timestamp;P1;durP1;ratioP1;P2;durP2;ratioP2
69047;SDS011;56119;50.118;8.642;2022-10-16T00:01:23;7.22;;;4.70;;
69047;SDS011;56119;50.118;8.642;2022-10-16T00:03:50;5.07;;;3.97;;
69047;SDS011;56119;50.118;8.642;2022-10-16T00:06:17;4.80;;;3.53;;
69047;SDS011;56119;50.118;8.642;2022-10-16T00:08:43;6.20;;;4.85;;
69047;SDS011;56119;50.118;8.642;2022-10-16T00:11:16;3.80;;;3.38;;
69047;SDS011;56119;50.118;8.642;2022-10-16T00:13:43;6.30;;;4.50;;
69047;SDS011;56119;50.118;8.642;2022-10-16T00:16:10;4.38;;;3.78;;
69047;SDS011;56119;50.118;8.642;2022-10-16T00:18:36;4.93;;;4.40;;
69047;SDS011;56119;50.118;8.642;2022-10-16T00:21:06;5.07;;;4.13;;
69047;SDS011;56119;50.118;8.642;2022-10-16T00:23:33;6.38;;;4.22;;
69047;SDS011;56119;50.118;8.642;2022-10-16T00:26:00;4.97;;;4.25;;
69047;SDS011;56119;50.118;8.642;2022-10-16T00:28:26;6.30;;;4.43;;
69047;SDS011;56119;50.118;8.642;2022-10-16T00:30:52;6.97;;;4.75;;
69047;SDS011;56119;50.118;8.642;2022-10-16T00:33:19;5.90;;;4.95;;
69047;SDS011;56119;50.118;8.642;2022-10-16T00:35:45;5.80;;;4.85;;
69047;SDS011;56119;50.118;8.642;2022-10-16T00:38:11;7.95;;;5.30;;
69047;SDS011;56119;50.118;8.642;2022-10-16T00:40:37;5.35;;;4.85;;
69047;SDS011;56119;50.118;8.642;2022-10-16T00:43:08;5.72;;;4.85;;
69047;SDS011;56119;50.118;8.642;2022-10-16T00:45:34;6.32;;;5.75;;
69047;SDS011;56119;50.118;8.642;2022-10-16T00:48:00;6.28;;;4.90;;
69047;SDS011;56119;50.118;8.642;2022-10-16T00:50:28;7.00;;;5.45;;
69047;SDS011;56119;50.118;8.642;2022-10-16T00:52:55;8.50;;;4.85;;
69047;SDS011;56119;50.118;8.642;2022-10-16T00:55:21;10.32;;;5.28;;
69047;SDS011;56119;50.118;8.642;2022-10-16T00:57:47;7.07;;;4.88;;
69047;SDS011;56119;50.118;8.642;2022-10-16T01:00:16;5.75;;;4.63;;
69047;SDS011;56119;50.118;8.642;2022-10-16T01:02:42;6.43;;;4.85;;
69047;SDS011;56119;50.118;8.642;2022-10-16T01:05:08;6.55;;;4.78;;
69047;SDS011;56119;50.118;8.642;2022-10-16T01:10:07;5.30;;;4.80;;
69047;SDS011;56119;50.118;8.642;2022-10-16T01:12:50;10.65;;;4.32;;
69047;SDS011;56119;50.118;8.642;2022-10-16T01:15:19;5.07;;;4.15;;
69047;SDS011;56119;50.118;8.642;2022-10-16T01:20:32;5.90;;;3.90;;
69047;SDS011;56119;50.118;8.642;2022-10-16T01:25:36;4.68;;;3.33;;
69047;SDS011;56119;50.118;8.642;2022-10-16T01:28:05;6.55;;;3.28;;
69047;SDS011;56119;50.118;8.642;2022-10-16T01:30:34;5.72;;;3.80;;
69047;SDS011;56119;50.118;8.642;2022-10-16T01:35:35;4.32;;;3.20;;
69047;SDS011;56119;50.118;8.642;2022-10-16T01:38:03;5.32;;;3.58;;
69047;SDS011;56119;50.118;8.642;2022-10-16T01:40:30;4.47;;;3.28;;
69047;SDS011;56119;50.118;8.642;2022-10-16T01:43:02;3.40;;;3.10;;
69047;SDS011;56119;50.118;8.642;2022-10-16T01:45:30;3.55;;;3.10;;
69047;SDS011;56119;50.118;8.642;2022-10-16T01:47:57;3.88;;;3.08;;
69047;SDS011;56119;50.118;8.642;2022-10-16T01:50:23;6.32;;;2.92;;
69047;SDS011;56119;50.118;8.642;2022-10-16T01:52:51;4.20;;;3.00;;
69047;SDS011;56119;50.118;8.642;2022-10-16T01:55:19;3.40;;;3.10;;
69047;SDS011;56119;50.118;8.642;2022-10-16T01:57:47;3.33;;;3.03;;
69047;SDS011;56119;50.118;8.642;2022-10-16T02:00:16;5.40;;;3.20;;
69047;SDS011;56119;50.118;8.642;2022-10-16T02:02:44;3.30;;;2.90;;
69047;SDS011;56119;50.118;8.642;2022-10-16T02:05:22;3.72;;;2.65;;
69047;SDS011;56119;50.118;8.642;2022-10-16T02:07:50;3.53;;;2.35;;
69047;SDS011;56119;50.118;8.642;2022-10-16T02:10:16;3.47;;;2.15;;
69047;SDS011;56119;50.118;8.642;2022-10-16T02:12:44;4.20;;;2.15;;
69047;SDS011;56119;50.118;8.642;2022-10-16T02:15:11;3.10;;;2.15;;
69047;SDS011;56119;50.118;8.642;2022-10-16T02:17:37;2.60;;;2.08;;
69047;SDS011;56119;50.118;8.642;2022-10-16T02:20:03;3.35;;;2.22;;
69047;SDS011;56119;50.118;8.642;2022-10-16T02:22:32;3.17;;;2.00;;
69047;SDS011;56119;50.118;8.642;2022-10-16T02:24:59;2.85;;;2.03;;
69047;SDS011;56119;50.118;8.642;2022-10-16T02:27:51;2.95;;;2.45;;
69047;SDS011;56119;50.118;8.642;2022-10-16T02:32:59;5.22;;;2.40;;
69047;SDS011;56119;50.118;8.642;2022-10-16T02:35:26;3.70;;;2.30;;
69047;SDS011;56119;50.118;8.642;2022-10-16T02:37:53;2.97;;;1.73;;
69047;SDS011;56119;50.118;8.642;2022-10-16T02:40:20;2.67;;;1.70;;
69047;SDS011;56119;50.118;8.642;2022-10-16T02:42:49;3.83;;;1.63;;
69047;SDS011;56119;50.118;8.642;2022-10-16T02:45:15;2.65;;;1.50;;
69047;SDS011;56119;50.118;8.642;2022-10-16T02:47:41;3.88;;;1.33;;
69047;SDS011;56119;50.118;8.642;2022-10-16T02:50:07;3.58;;;1.65;;
69047;SDS011;56119;50.118;8.642;2022-10-16T02:52:33;1.85;;;1.30;;
69047;SDS011;56119;50.118;8.642;2022-10-16T02:54:59;1.30;;;1.20;;
69047;SDS011;56119;50.118;8.642;2022-10-16T02:57:25;3.88;;;1.58;;
69047;SDS011;56119;50.118;8.642;2022-10-16T02:59:51;2.80;;;1.70;;
69047;SDS011;56119;50.118;8.642;2022-10-16T03:02:17;2.03;;;1.17;;
69047;SDS011;56119;50.118;8.642;2022-10-16T03:04:43;2.70;;;1.20;;
69047;SDS011;56119;50.118;8.642;2022-10-16T03:07:09;3.00;;;1.30;;
69047;SDS011;56119;50.118;8.642;2022-10-16T03:09:35;2.85;;;1.38;;
69047;SDS011;56119;50.118;8.642;2022-10-16T03:12:01;4.35;;;1.20;;
69047;SDS011;56119;50.118;8.642;2022-10-16T03:14:27;1.35;;;1.23;;
69047;SDS011;56119;50.118;8.642;2022-10-16T03:16:53;1.50;;;1.10;;
69047;SDS011;56119;50.118;8.642;2022-10-16T03:19:19;1.30;;;1.20;;
69047;SDS011;56119;50.118;8.642;2022-10-16T03:21:45;2.83;;;1.27;;
69047;SDS011;56119;50.118;8.642;2022-10-16T03:24:11;2.53;;;1.23;;
69047;SDS011;56119;50.118;8.642;2022-10-16T03:26:37;2.10;;;1.33;;
69047;SDS011;56119;50.118;8.642;2022-10-16T03:29:03;1.85;;;1.30;;
69047;SDS011;56119;50.118;8.642;2022-10-16T03:31:30;2.30;;;1.13;;
69047;SDS011;56119;50.118;8.642;2022-10-16T03:33:56;2.05;;;1.00;;
69047;SDS011;56119;50.118;8.642;2022-10-16T03:36:22;2.78;;;1.10;;
69047;SDS011;56119;50.118;8.642;2022-10-16T03:38:48;1.75;;;1.30;;
69047;SDS011;56119;50.118;8.642;2022-10-16T03:41:14;1.77;;;1.33;;
69047;SDS011;56119;50.118;8.642;2022-10-16T03:43:40;1.63;;;1.20;;
69047;SDS011;56119;50.118;8.642;2022-10-16T03:46:06;1.88;;;1.17;;
69047;SDS011;56119;50.118;8.642;2022-10-16T03:48:32;1.45;;;1.25;;
69047;SDS011;56119;50.118;8.642;2022-10-16T03:50:58;1.85;;;1.15;;
69047;SDS011;56119;50.118;8.642;2022-10-16T03:53:24;3.08;;;1.33;;
69047;SDS011;56119;50.118;8.642;2022-10-16T03:55:50;2.70;;;1.65;;
69047;SDS011;56119;50.118;8.642;2022-10-16T03:58:16;2.38;;;1.40;;
69047;SDS011;56119;50.118;8.642;2022-10-16T04:00:42;3.58;;;1.02;;
69047;SDS011;56119;50.118;8.642;2022-10-16T04:03:08;1.63;;;0.98;;
69047;SDS011;56119;50.118;8.642;2022-10-16T04:05:34;3.08;;;1.48;;
69047;SDS011;56119;50.118;8.642;2022-10-16T04:08:00;1.55;;;1.02;;
69047;SDS011;56119;50.118;8.642;2022-10-16T04:10:26;2.38;;;1.00;;
69047;SDS011;56119;50.118;8.642;2022-10-16T04:12:52;2.85;;;1.40;;
69047;SDS011;56119;50.118;8.642;2022-10-16T04:15:20;3.42;;;1.67;;
69047;SDS011;56119;50.118;8.642;2022-10-16T04:17:46;1.85;;;1.13;;
69047;SDS011;56119;50.118;8.642;2022-10-16T04:20:12;2.35;;;1.30;;
69047;SDS011;56119;50.118;8.642;2022-10-16T04:22:38;3.13;;;1.50;;
69047;SDS011;56119;50.118;8.642;2022-10-16T04:25:04;3.38;;;1.88;;
69047;SDS011;56119;50.118;8.642;2022-10-16T04:27:30;2.53;;;1.80;;
69047;SDS011;56119;50.118;8.642;2022-10-16T04:29:57;1.50;;;0.98;;
69047;SDS011;56119;50.118;8.642;2022-10-16T04:32:23;1.73;;;1.27;;
69047;SDS011;56119;50.118;8.642;2022-10-16T04:34:49;1.00;;;0.90;;
69047;SDS011;56119;50.118;8.642;2022-10-16T04:37:14;1.58;;;1.02;;
69047;SDS011;56119;50.118;8.642;2022-10-16T04:39:40;3.10;;;1.20;;
69047;SDS011;56119;50.118;8.642;2022-10-16T04:42:06;1.88;;;1.25;;
69047;SDS011;56119;50.118;8.642;2022-10-16T04:44:32;2.38;;;1.20;;
69047;SDS011;56119;50.118;8.642;2022-10-16T04:46:58;2.65;;;1.20;;
69047;SDS011;56119;50.118;8.642;2022-10-16T04:49:24;1.65;;;1.20;;
69047;SDS011;56119;50.118;8.642;2022-10-16T04:51:50;3.58;;;1.40;;
69047;SDS011;56119;50.118;8.642;2022-10-16T04:54:16;1.80;;;1.30;;
69047;SDS011;56119;50.118;8.642;2022-10-16T04:56:42;1.75;;;1.40;;
69047;SDS011;56119;50.118;8.642;2022-10-16T04:59:13;2.30;;;1.73;;
69047;SDS011;56119;50.118;8.642;2022-10-16T05:01:39;2.50;;;1.10;;
69047;SDS011;56119;50.118;8.642;2022-10-16T05:04:05;2.00;;;1.40;;
69047;SDS011;56119;50.118;8.642;2022-10-16T05:06:31;1.75;;;1.40;;
69047;SDS011;56119;50.118;8.642;2022-10-16T05:08:57;1.65;;;1.33;;
69047;SDS011;56119;50.118;8.642;2022-10-16T05:11:24;1.77;;;1.35;;
69047;SDS011;56119;50.118;8.642;2022-10-16T05:13:50;2.03;;;1.40;;
69047;SDS011;56119;50.118;8.642;2022-10-16T05:16:15;3.20;;;1.30;;
69047;SDS011;56119;50.118;8.642;2022-10-16T05:18:42;3.95;;;1.60;;
69047;SDS011;56119;50.118;8.642;2022-10-16T05:21:08;3.10;;;1.50;;
69047;SDS011;56119;50.118;8.642;2022-10-16T05:23:34;1.90;;;1.50;;
69047;SDS011;56119;50.118;8.642;2022-10-16T05:26:00;3.92;;;1.45;;
69047;SDS011;56119;50.118;8.642;2022-10-16T05:28:27;2.08;;;1.40;;
69047;SDS011;56119;50.118;8.642;2022-10-16T05:30:53;3.50;;;1.48;;
69047;SDS011;56119;50.118;8.642;2022-10-16T05:33:23;1.20;;;1.10;;
69047;SDS011;56119;50.118;8.642;2022-10-16T05:35:50;2.72;;;1.30;;
69047;SDS011;56119;50.118;8.642;2022-10-16T05:38:16;1.63;;;1.50;;
69047;SDS011;56119;50.118;8.642;2022-10-16T05:40:42;2.60;;;1.63;;
69047;SDS011;56119;50.118;8.642;2022-10-16T05:43:08;2.42;;;1.33;;
69047;SDS011;56119;50.118;8.642;2022-10-16T05:45:34;3.05;;;1.40;;
69047;SDS011;56119;50.118;8.642;2022-10-16T05:48:00;4.15;;;1.70;;
69047;SDS011;56119;50.118;8.642;2022-10-16T05:50:26;2.60;;;1.77;;
69047;SDS011;56119;50.118;8.642;2022-10-16T05:52:52;2.53;;;1.80;;
69047;SDS011;56119;50.118;8.642;2022-10-16T05:55:18;3.50;;;1.83;;
69047;SDS011;56119;50.118;8.642;2022-10-16T05:57:44;2.97;;;1.83;;
69047;SDS011;56119;50.118;8.642;2022-10-16T06:00:10;3.50;;;2.08;;
69047;SDS011;56119;50.118;8.642;2022-10-16T06:02:36;3.15;;;1.88;;
69047;SDS011;56119;50.118;8.642;2022-10-16T06:05:02;3.13;;;1.80;;
69047;SDS011;56119;50.118;8.642;2022-10-16T06:07:28;2.85;;;1.90;;
69047;SDS011;56119;50.118;8.642;2022-10-16T06:09:54;3.40;;;1.75;;
69047;SDS011;56119;50.118;8.642;2022-10-16T06:12:20;2.83;;;1.65;;
69047;SDS011;56119;50.118;8.642;2022-10-16T06:14:46;4.25;;;1.88;;
69047;SDS011;56119;50.118;8.642;2022-10-16T06:17:15;3.30;;;1.88;;
69047;SDS011;56119;50.118;8.642;2022-10-16T06:19:41;2.88;;;2.00;;
69047;SDS011;56119;50.118;8.642;2022-10-16T06:22:07;2.35;;;1.75;;
69047;SDS011;56119;50.118;8.642;2022-10-16T06:24:33;2.38;;;1.50;;
69047;SDS011;56119;50.118;8.642;2022-10-16T06:26:59;3.22;;;1.73;;
69047;SDS011;56119;50.118;8.642;2022-10-16T06:29:25;3.53;;;1.90;;
69047;SDS011;56119;50.118;8.642;2022-10-16T06:31:51;2.92;;;1.90;;
69047;SDS011;56119;50.118;8.642;2022-10-16T06:34:17;4.05;;;2.20;;
69047;SDS011;56119;50.118;8.642;2022-10-16T06:36:44;3.38;;;2.40;;
69047;SDS011;56119;50.118;8.642;2022-10-16T06:39:09;2.95;;;2.10;;
69047;SDS011;56119;50.118;8.642;2022-10-16T06:41:35;3.70;;;2.30;;
69047;SDS011;56119;50.118;8.642;2022-10-16T06:44:04;3.08;;;1.92;;
69047;SDS011;56119;50.118;8.642;2022-10-16T06:46:30;3.30;;;2.22;;
69047;SDS011;56119;50.118;8.642;2022-10-16T06:48:56;3.30;;;1.95;;
69047;SDS011;56119;50.118;8.642;2022-10-16T06:51:23;3.70;;;1.75;;
69047;SDS011;56119;50.118;8.642;2022-10-16T06:53:50;2.65;;;1.73;;
69047;SDS011;56119;50.118;8.642;2022-10-16T06:56:23;3.25;;;1.90;;
69047;SDS011;56119;50.118;8.642;2022-10-16T06:58:50;5.68;;;2.60;;
69047;SDS011;56119;50.118;8.642;2022-10-16T07:01:17;4.88;;;2.85;;
69047;SDS011;56119;50.118;8.642;2022-10-16T07:03:44;5.43;;;3.08;;
69047;SDS011;56119;50.118;8.642;2022-10-16T07:06:11;3.78;;;2.60;;
69047;SDS011;56119;50.118;8.642;2022-10-16T07:08:38;3.70;;;2.97;;
69047;SDS011;56119;50.118;8.642;2022-10-16T07:11:05;3.58;;;2.90;;
69047;SDS011;56119;50.118;8.642;2022-10-16T07:13:34;8.07;;;3.75;;
69047;SDS011;56119;50.118;8.642;2022-10-16T07:16:07;6.03;;;3.78;;
69047;SDS011;56119;50.118;8.642;2022-10-16T07:18:34;5.72;;;3.55;;
69047;SDS011;56119;50.118;8.642;2022-10-16T07:21:05;4.68;;;3.80;;
69047;SDS011;56119;50.118;8.642;2022-10-16T07:23:31;4.97;;;3.47;;
69047;SDS011;56119;50.118;8.642;2022-10-16T07:25:57;5.55;;;3.50;;
69047;SDS011;56119;50.118;8.642;2022-10-16T07:28:23;4.40;;;3.72;;
69047;SDS011;56119;50.118;8.642;2022-10-16T07:30:49;7.30;;;4.18;;
69047;SDS011;56119;50.118;8.642;2022-10-16T07:33:16;3.75;;;3.35;;
69047;SDS011;56119;50.118;8.642;2022-10-16T07:35:48;3.83;;;3.35;;
69047;SDS011;56119;50.118;8.642;2022-10-16T07:38:14;5.97;;;3.85;;
69047;SDS011;56119;50.118;8.642;2022-10-16T07:40:40;4.53;;;3.75;;
69047;SDS011;56119;50.118;8.642;2022-10-16T07:43:06;5.10;;;3.80;;
69047;SDS011;56119;50.118;8.642;2022-10-16T07:45:32;4.88;;;4.15;;
69047;SDS011;56119;50.118;8.642;2022-10-16T07:47:58;6.35;;;4.32;;
69047;SDS011;56119;50.118;8.642;2022-10-16T07:50:24;6.55;;;3.85;;
69047;SDS011;56119;50.118;8.642;2022-10-16T07:52:50;6.50;;;3.42;;
69047;SDS011;56119;50.118;8.642;2022-10-16T07:55:16;4.43;;;3.47;;
69047;SDS011;56119;50.118;8.642;2022-10-16T07:57:42;4.32;;;3.25;;
69047;SDS011;56119;50.118;8.642;2022-10-16T08:00:08;5.00;;;3.42;;
69047;SDS011;56119;50.118;8.642;2022-10-16T08:02:38;7.88;;;5.03;;
69047;SDS011;56119;50.118;8.642;2022-10-16T08:05:04;6.82;;;4.55;;
69047;SDS011;56119;50.118;8.642;2022-10-16T08:07:30;4.63;;;3.33;;
69047;SDS011;56119;50.118;8.642;2022-10-16T08:09:56;6.15;;;3.30;;
69047;SDS011;56119;50.118;8.642;2022-10-16T08:12:23;7.13;;;4.05;;
69047;SDS011;56119;50.118;8.642;2022-10-16T08:14:49;7.65;;;4.03;;
69047;SDS011;56119;50.118;8.642;2022-10-16T08:17:15;4.15;;;3.42;;
69047;SDS011;56119;50.118;8.642;2022-10-16T08:19:45;6.03;;;3.97;;
69047;SDS011;56119;50.118;8.642;2022-10-16T08:22:11;4.75;;;3.55;;
69047;SDS011;56119;50.118;8.642;2022-10-16T08:24:37;4.95;;;3.95;;
69047;SDS011;56119;50.118;8.642;2022-10-16T08:27:03;3.88;;;3.38;;
69047;SDS011;56119;50.118;8.642;2022-10-16T08:29:29;4.78;;;3.65;;
69047;SDS011;56119;50.118;8.642;2022-10-16T08:31:55;4.63;;;3.35;;
69047;SDS011;56119;50.118;8.642;2022-10-16T08:34:21;3.78;;;3.35;;
69047;SDS011;56119;50.118;8.642;2022-10-16T08:36:47;4.63;;;3.88;;
69047;SDS011;56119;50.118;8.642;2022-10-16T08:39:13;5.65;;;4.40;;
69047;SDS011;56119;50.118;8.642;2022-10-16T08:49:27;7.90;;;4.20;;
69047;SDS011;56119;50.118;8.642;2022-10-16T08:51:53;3.63;;;3.30;;
69047;SDS011;56119;50.118;8.642;2022-10-16T08:54:32;4.82;;;4.10;;
69047;SDS011;56119;50.118;8.642;2022-10-16T08:59:57;5.72;;;4.32;;
69047;SDS011;56119;50.118;8.642;2022-10-16T09:02:38;8.88;;;5.50;;
69047;SDS011;56119;50.118;8.642;2022-10-16T09:07:49;8.13;;;5.20;;
69047;SDS011;56119;50.118;8.642;2022-10-16T09:15:19;8.13;;;6.63;;
69047;SDS011;56119;50.118;8.642;2022-10-16T09:17:52;8.80;;;7.00;;
69047;SDS011;56119;50.118;8.642;2022-10-16T09:22:45;6.53;;;5.70;;
69047;SDS011;56119;50.118;8.642;2022-10-16T09:25:13;7.15;;;5.80;;
69047;SDS011;56119;50.118;8.642;2022-10-16T09:27:39;7.43;;;5.55;;
69047;SDS011;56119;50.118;8.642;2022-10-16T09:30:16;7.20;;;6.03;;
69047;SDS011;56119;50.118;8.642;2022-10-16T09:32:43;7.97;;;6.80;;
69047;SDS011;56119;50.118;8.642;2022-10-16T09:35:11;7.60;;;6.80;;
69047;SDS011;56119;50.118;8.642;2022-10-16T09:37:39;7.78;;;6.25;;
69047;SDS011;56119;50.118;8.642;2022-10-16T09:40:06;8.55;;;6.10;;
69047;SDS011;56119;50.118;8.642;2022-10-16T09:42:34;8.65;;;6.20;;
69047;SDS011;56119;50.118;8.642;2022-10-16T09:45:01;7.55;;;5.85;;
69047;SDS011;56119;50.118;8.642;2022-10-16T09:47:27;10.05;;;5.97;;
69047;SDS011;56119;50.118;8.642;2022-10-16T09:49:55;10.23;;;7.72;;
69047;SDS011;56119;50.118;8.642;2022-10-16T09:52:22;11.48;;;7.47;;
69047;SDS011;56119;50.118;8.642;2022-10-16T09:54:58;9.52;;;7.57;;
69047;SDS011;56119;50.118;8.642;2022-10-16T09:57:25;8.18;;;7.13;;
69047;SDS011;56119;50.118;8.642;2022-10-16T09:59:52;14.10;;;7.82;;
69047;SDS011;56119;50.118;8.642;2022-10-16T10:02:29;10.18;;;6.20;;
69047;SDS011;56119;50.118;8.642;2022-10-16T10:04:56;7.60;;;6.15;;
69047;SDS011;56119;50.118;8.642;2022-10-16T10:07:30;6.63;;;5.45;;
69047;SDS011;56119;50.118;8.642;2022-10-16T10:10:01;9.00;;;6.53;;
69047;SDS011;56119;50.118;8.642;2022-10-16T10:12:28;10.23;;;6.70;;
69047;SDS011;56119;50.118;8.642;2022-10-16T10:14:57;7.28;;;5.65;;
69047;SDS011;56119;50.118;8.642;2022-10-16T10:17:24;7.55;;;5.88;;
69047;SDS011;56119;50.118;8.642;2022-10-16T10:22:30;5.13;;;4.45;;
69047;SDS011;56119;50.118;8.642;2022-10-16T10:24:57;5.45;;;4.53;;
69047;SDS011;56119;50.118;8.642;2022-10-16T10:27:28;8.75;;;4.60;;
69047;SDS011;56119;50.118;8.642;2022-10-16T10:29:59;4.07;;;3.38;;
69047;SDS011;56119;50.118;8.642;2022-10-16T10:35:15;4.10;;;3.00;;
69047;SDS011;56119;50.118;8.642;2022-10-16T10:37:49;4.15;;;2.80;;
69047;SDS011;56119;50.118;8.642;2022-10-16T10:40:23;5.38;;;3.08;;
69047;SDS011;56119;50.118;8.642;2022-10-16T10:42:56;5.55;;;4.32;;
69047;SDS011;56119;50.118;8.642;2022-10-16T10:45:33;4.47;;;3.08;;
69047;SDS011;56119;50.118;8.642;2022-10-16T10:48:14;3.13;;;2.83;;
69047;SDS011;56119;50.118;8.642;2022-10-16T10:50:43;5.57;;;3.08;;
69047;SDS011;56119;50.118;8.642;2022-10-16T10:56:36;4.63;;;3.90;;
69047;SDS011;56119;50.118;8.642;2022-10-16T11:01:24;6.85;;;4.75;;
69047;SDS011;56119;50.118;8.642;2022-10-16T11:04:01;6.50;;;4.85;;
69047;SDS011;56119;50.118;8.642;2022-10-16T11:06:46;8.05;;;5.53;;
69047;SDS011;56119;50.118;8.642;2022-10-16T11:09:18;7.05;;;5.57;;
69047;SDS011;56119;50.118;8.642;2022-10-16T11:11:53;7.03;;;5.88;;
69047;SDS011;56119;50.118;8.642;2022-10-16T11:14:23;8.82;;;6.63;;
69047;SDS011;56119;50.118;8.642;2022-10-16T11:16:53;8.45;;;7.65;;
69047;SDS011;56119;50.118;8.642;2022-10-16T11:21:58;9.25;;;8.38;;
69047;SDS011;56119;50.118;8.642;2022-10-16T11:24:35;10.27;;;9.18;;
69047;SDS011;56119;50.118;8.642;2022-10-16T11:27:07;10.18;;;9.18;;
69047;SDS011;56119;50.118;8.642;2022-10-16T11:29:34;10.13;;;9.13;;
69047;SDS011;56119;50.118;8.642;2022-10-16T11:32:20;10.32;;;9.23;;
69047;SDS011;56119;50.118;8.642;2022-10-16T11:34:49;9.13;;;8.23;;
69047;SDS011;56119;50.118;8.642;2022-10-16T11:37:19;8.88;;;8.00;;
69047;SDS011;56119;50.118;8.642;2022-10-16T11:39:47;10.77;;;9.02;;
69047;SDS011;56119;50.118;8.642;2022-10-16T11:42:32;8.57;;;7.50;;
69047;SDS011;56119;50.118;8.642;2022-10-16T11:52:44;8.68;;;7.78;;
69047;SDS011;56119;50.118;8.642;2022-10-16T11:55:14;8.70;;;7.90;;
69047;SDS011;56119;50.118;8.642;2022-10-16T11:57:46;8.10;;;7.40;;
69047;SDS011;56119;50.118;8.642;2022-10-16T12:03:00;6.13;;;5.53;;
69047;SDS011;56119;50.118;8.642;2022-10-16T12:08:06;6.47;;;5.45;;
69047;SDS011;56119;50.118;8.642;2022-10-16T12:10:34;6.43;;;5.03;;
69047;SDS011;56119;50.118;8.642;2022-10-16T12:15:48;3.97;;;3.40;;
69047;SDS011;56119;50.118;8.642;2022-10-16T12:18:23;4.55;;;3.67;;
69047;SDS011;56119;50.118;8.642;2022-10-16T12:20:56;4.95;;;4.00;;
69047;SDS011;56119;50.118;8.642;2022-10-16T12:23:24;7.18;;;4.40;;
69047;SDS011;56119;50.118;8.642;2022-10-16T12:25:57;4.55;;;4.03;;
69047;SDS011;56119;50.118;8.642;2022-10-16T12:28:28;4.22;;;3.22;;
69047;SDS011;56119;50.118;8.642;2022-10-16T12:33:33;3.45;;;2.65;;
69047;SDS011;56119;50.118;8.642;2022-10-16T12:36:00;5.05;;;2.80;;
69047;SDS011;56119;50.118;8.642;2022-10-16T12:38:28;2.97;;;2.55;;
69047;SDS011;56119;50.118;8.642;2022-10-16T12:40:56;4.65;;;3.00;;
69047;SDS011;56119;50.118;8.642;2022-10-16T12:43:24;4.35;;;3.35;;
69047;SDS011;56119;50.118;8.642;2022-10-16T12:46:03;3.60;;;3.30;;
69047;SDS011;56119;50.118;8.642;2022-10-16T12:48:29;5.07;;;3.40;;
69047;SDS011;56119;50.118;8.642;2022-10-16T12:50:56;4.72;;;3.50;;
69047;SDS011;56119;50.118;8.642;2022-10-16T12:53:25;3.42;;;2.95;;
69047;SDS011;56119;50.118;8.642;2022-10-16T12:56:03;4.20;;;3.00;;
69047;SDS011;56119;50.118;8.642;2022-10-16T13:11:41;3.67;;;2.60;;
69047;SDS011;56119;50.118;8.642;2022-10-16T13:16:56;2.03;;;1.60;;
69047;SDS011;56119;50.118;8.642;2022-10-16T13:19:29;2.42;;;2.22;;
69047;SDS011;56119;50.118;8.642;2022-10-16T13:22:01;2.75;;;1.77;;
69047;SDS011;56119;50.118;8.642;2022-10-16T13:24:51;2.58;;;2.00;;
69047;SDS011;56119;50.118;8.642;2022-10-16T13:27:29;3.00;;;2.60;;
69047;SDS011;56119;50.118;8.642;2022-10-16T13:30:11;2.60;;;2.10;;
69047;SDS011;56119;50.118;8.642;2022-10-16T13:32:38;2.17;;;1.98;;
69047;SDS011;56119;50.118;8.642;2022-10-16T13:35:15;2.75;;;1.90;;
69047;SDS011;56119;50.118;8.642;2022-10-16T13:37:43;2.90;;;2.03;;
69047;SDS011;56119;50.118;8.642;2022-10-16T13:40:18;2.80;;;2.10;;
69047;SDS011;56119;50.118;8.642;2022-10-16T13:42:44;4.35;;;2.75;;
69047;SDS011;56119;50.118;8.642;2022-10-16T13:45:19;5.05;;;2.75;;
69047;SDS011;56119;50.118;8.642;2022-10-16T13:47:46;3.35;;;1.95;;
69047;SDS011;56119;50.118;8.642;2022-10-16T13:50:13;2.55;;;1.83;;
69047;SDS011;56119;50.118;8.642;2022-10-16T13:52:39;3.33;;;2.70;;
69047;SDS011;56119;50.118;8.642;2022-10-16T13:55:12;4.00;;;2.10;;
69047;SDS011;56119;50.118;8.642;2022-10-16T13:57:39;2.47;;;2.10;;
69047;SDS011;56119;50.118;8.642;2022-10-16T14:00:26;2.00;;;1.70;;
69047;SDS011;56119;50.118;8.642;2022-10-16T14:03:05;4.00;;;1.95;;
69047;SDS011;56119;50.118;8.642;2022-10-16T14:05:32;4.22;;;2.33;;
69047;SDS011;56119;50.118;8.642;2022-10-16T14:07:58;3.30;;;2.47;;
69047;SDS011;56119;50.118;8.642;2022-10-16T14:10:29;3.00;;;2.10;;
69047;SDS011;56119;50.118;8.642;2022-10-16T14:12:56;3.83;;;2.13;;
69047;SDS011;56119;50.118;8.642;2022-10-16T14:15:22;3.17;;;2.20;;
69047;SDS011;56119;50.118;8.642;2022-10-16T14:17:49;2.72;;;1.80;;
69047;SDS011;56119;50.118;8.642;2022-10-16T14:20:16;3.58;;;2.50;;
69047;SDS011;56119;50.118;8.642;2022-10-16T14:22:42;4.50;;;2.60;;
69047;SDS011;56119;50.118;8.642;2022-10-16T14:27:44;2.30;;;1.90;;
69047;SDS011;56119;50.118;8.642;2022-10-16T14:30:18;3.03;;;2.20;;
69047;SDS011;56119;50.118;8.642;2022-10-16T14:32:59;2.38;;;2.17;;
69047;SDS011;56119;50.118;8.642;2022-10-16T14:35:29;3.00;;;1.90;;
69047;SDS011;56119;50.118;8.642;2022-10-16T14:37:56;2.70;;;2.00;;
69047;SDS011;56119;50.118;8.642;2022-10-16T14:40:24;3.17;;;2.40;;
69047;SDS011;56119;50.118;8.642;2022-10-16T14:42:50;3.05;;;1.95;;
69047;SDS011;56119;50.118;8.642;2022-10-16T14:45:20;2.63;;;1.85;;
69047;SDS011;56119;50.118;8.642;2022-10-16T14:47:47;3.38;;;2.42;;
69047;SDS011;56119;50.118;8.642;2022-10-16T14:50:14;4.78;;;2.63;;
69047;SDS011;56119;50.118;8.642;2022-10-16T14:52:40;3.17;;;2.63;;
69047;SDS011;56119;50.118;8.642;2022-10-16T14:55:08;2.53;;;2.10;;
69047;SDS011;56119;50.118;8.642;2022-10-16T14:57:34;3.72;;;2.63;;
69047;SDS011;56119;50.118;8.642;2022-10-16T15:00:02;1.75;;;1.65;;
69047;SDS011;56119;50.118;8.642;2022-10-16T15:02:32;2.75;;;2.00;;
69047;SDS011;56119;50.118;8.642;2022-10-16T15:05:10;2.13;;;1.83;;
69047;SDS011;56119;50.118;8.642;2022-10-16T15:07:36;2.80;;;1.92;;
69047;SDS011;56119;50.118;8.642;2022-10-16T15:10:03;2.58;;;2.38;;
69047;SDS011;56119;50.118;8.642;2022-10-16T15:12:29;2.92;;;2.45;;
69047;SDS011;56119;50.118;8.642;2022-10-16T15:14:55;3.33;;;2.50;;
69047;SDS011;56119;50.118;8.642;2022-10-16T15:17:20;3.58;;;2.47;;
69047;SDS011;56119;50.118;8.642;2022-10-16T15:19:46;4.57;;;2.80;;
69047;SDS011;56119;50.118;8.642;2022-10-16T15:22:12;2.75;;;2.15;;
69047;SDS011;56119;50.118;8.642;2022-10-16T15:24:38;3.00;;;2.25;;
69047;SDS011;56119;50.118;8.642;2022-10-16T15:27:04;4.65;;;2.58;;
69047;SDS011;56119;50.118;8.642;2022-10-16T15:29:30;4.60;;;2.55;;
69047;SDS011;56119;50.118;8.642;2022-10-16T15:31:56;6.43;;;3.08;;
69047;SDS011;56119;50.118;8.642;2022-10-16T15:34:22;3.13;;;2.30;;
69047;SDS011;56119;50.118;8.642;2022-10-16T15:36:48;7.65;;;5.47;;
69047;SDS011;56119;50.118;8.642;2022-10-16T15:39:16;5.68;;;4.10;;
69047;SDS011;56119;50.118;8.642;2022-10-16T15:41:42;7.25;;;4.60;;
69047;SDS011;56119;50.118;8.642;2022-10-16T15:44:09;4.85;;;4.10;;
69047;SDS011;56119;50.118;8.642;2022-10-16T15:46:35;5.70;;;3.58;;
69047;SDS011;56119;50.118;8.642;2022-10-16T15:49:02;7.65;;;3.38;;
69047;SDS011;56119;50.118;8.642;2022-10-16T15:51:28;7.68;;;4.65;;
69047;SDS011;56119;50.118;8.642;2022-10-16T15:53:58;6.10;;;3.95;;
69047;SDS011;56119;50.118;8.642;2022-10-16T15:56:24;5.68;;;3.70;;
69047;SDS011;56119;50.118;8.642;2022-10-16T15:58:51;4.10;;;3.65;;
69047;SDS011;56119;50.118;8.642;2022-10-16T16:01:18;4.55;;;3.55;;
69047;SDS011;56119;50.118;8.642;2022-10-16T16:03:44;4.13;;;3.47;;
69047;SDS011;56119;50.118;8.642;2022-10-16T16:06:11;7.68;;;4.53;;
69047;SDS011;56119;50.118;8.642;2022-10-16T16:08:37;6.18;;;4.10;;
69047;SDS011;56119;50.118;8.642;2022-10-16T16:11:05;6.82;;;3.92;;
69047;SDS011;56119;50.118;8.642;2022-10-16T16:13:31;7.13;;;4.60;;
69047;SDS011;56119;50.118;8.642;2022-10-16T16:15:57;7.88;;;5.40;;
69047;SDS011;56119;50.118;8.642;2022-10-16T16:18:23;5.25;;;4.15;;